createdAt,value
2017-09-30T00:01:39.733Z,72.40
2017-09-30T00:04:07.238Z,72.40
2017-09-30T00:06:34.778Z,72.50
2017-09-30T00:09:02.934Z,72.60
2017-09-30T00:11:31.358Z,72.60
2017-09-30T00:13:58.873Z,72.50
2017-09-30T00:16:26.392Z,72.40
2017-09-30T00:18:54.677Z,72.00
2017-09-30T00:21:22.967Z,71.80
2017-09-30T00:23:51.832Z,71.80
2017-09-30T00:26:20.101Z,71.70
2017-09-30T00:28:47.594Z,71.60
2017-09-30T00:31:15.121Z,71.60
2017-09-30T00:33:43.424Z,71.40
2017-09-30T00:36:10.917Z,71.40
2017-09-30T00:38:38.517Z,71.30
2017-09-30T00:41:06.813Z,71.20
2017-09-30T00:43:34.344Z,71.00
2017-09-30T00:46:02.607Z,71.40
2017-09-30T00:48:30.100Z,71.40
2017-09-30T00:50:57.604Z,71.50
2017-09-30T00:53:25.108Z,71.50
2017-09-30T00:55:52.621Z,71.50
2017-09-30T00:58:20.247Z,71.60
2017-09-30T01:00:47.980Z,71.50
2017-09-30T01:03:16.325Z,71.50
2017-09-30T01:05:44.417Z,71.50
2017-09-30T01:08:13.594Z,71.60
2017-09-30T01:10:41.088Z,71.60
2017-09-30T01:13:08.613Z,71.50
2017-09-30T01:15:36.096Z,71.50
2017-09-30T01:18:04.586Z,71.50
2017-09-30T01:20:32.081Z,71.50
2017-09-30T01:22:59.576Z,71.40
2017-09-30T01:25:27.849Z,71.40
2017-09-30T01:27:55.344Z,71.40
2017-09-30T01:30:22.863Z,71.30
2017-09-30T01:32:51.125Z,71.30
2017-09-30T01:35:19.396Z,71.20
2017-09-30T01:37:46.913Z,71.20
2017-09-30T01:40:14.409Z,71.00
2017-09-30T01:42:42.021Z,71.00
2017-09-30T01:45:09.536Z,70.80
2017-09-30T01:47:37.038Z,70.60
2017-09-30T01:50:04.552Z,70.60
2017-09-30T01:52:32.816Z,70.50
2017-09-30T01:55:00.365Z,70.50
2017-09-30T01:57:27.847Z,70.30
2017-09-30T01:59:56.113Z,70.30
2017-09-30T02:02:23.626Z,70.20
2017-09-30T02:04:51.125Z,70.00
2017-09-30T02:07:18.657Z,70.00
2017-09-30T02:09:46.162Z,69.90
2017-09-30T02:12:13.769Z,69.70
2017-09-30T02:14:41.265Z,69.40
2017-09-30T02:17:09.532Z,69.20
2017-09-30T02:19:37.938Z,69.00
2017-09-30T02:22:05.443Z,69.00
2017-09-30T02:24:32.952Z,69.00
2017-09-30T02:27:00.486Z,68.80
2017-09-30T02:29:28.752Z,68.70
2017-09-30T02:31:56.251Z,68.70
2017-09-30T02:34:23.765Z,68.70
2017-09-30T02:36:51.260Z,68.80
2017-09-30T02:39:18.760Z,68.80
2017-09-30T02:41:46.264Z,68.70
2017-09-30T02:44:13.778Z,68.50
2017-09-30T02:46:41.280Z,68.50
2017-09-30T02:49:08.797Z,68.20
2017-09-30T02:51:36.296Z,68.30
2017-09-30T02:54:03.784Z,67.90
2017-09-30T02:56:31.400Z,67.80
2017-09-30T02:58:58.897Z,67.50
2017-09-30T03:01:26.400Z,67.50
2017-09-30T03:03:54.785Z,67.50
2017-09-30T03:06:23.047Z,67.40
2017-09-30T03:08:51.322Z,67.40
2017-09-30T03:11:19.599Z,67.30
2017-09-30T03:13:47.868Z,67.30
2017-09-30T03:16:15.483Z,67.20
2017-09-30T03:18:42.976Z,67.20
2017-09-30T03:21:10.484Z,67.30
2017-09-30T03:23:37.993Z,67.30
2017-09-30T03:26:05.493Z,67.30
2017-09-30T03:28:33.124Z,67.30
2017-09-30T03:31:01.394Z,67.50
2017-09-30T03:33:29.663Z,67.60
2017-09-30T03:35:57.952Z,67.90
2017-09-30T03:38:26.227Z,68.00
2017-09-30T03:40:54.648Z,68.10
2017-09-30T03:43:22.165Z,68.10
2017-09-30T03:45:50.416Z,68.30
2017-09-30T03:48:17.961Z,68.30
2017-09-30T03:50:45.469Z,68.30
2017-09-30T03:53:12.964Z,68.20
2017-09-30T03:55:40.497Z,68.20
2017-09-30T03:58:08.031Z,68.10
2017-09-30T04:00:35.537Z,67.80
2017-09-30T04:03:03.096Z,67.60
2017-09-30T04:05:30.610Z,67.50
2017-09-30T04:07:58.867Z,67.60
2017-09-30T04:10:27.185Z,67.10
2017-09-30T04:12:54.684Z,67.10
2017-09-30T04:15:22.222Z,67.10
2017-09-30T04:17:49.756Z,67.10
2017-09-30T04:20:17.261Z,67.10
2017-09-30T04:22:44.792Z,67.00
2017-09-30T04:25:12.289Z,67.00
2017-09-30T04:27:40.629Z,67.20
2017-09-30T04:30:08.121Z,67.10
2017-09-30T04:32:35.619Z,67.10
2017-09-30T04:35:03.147Z,66.90
2017-09-30T04:37:30.643Z,67.00
2017-09-30T04:39:58.136Z,67.10
2017-09-30T04:42:25.665Z,67.20
2017-09-30T04:44:53.157Z,67.30
2017-09-30T04:47:21.448Z,67.30
2017-09-30T04:49:48.972Z,67.30
2017-09-30T04:52:16.451Z,67.30
2017-09-30T04:54:44.749Z,67.50
2017-09-30T04:57:12.275Z,67.50
2017-09-30T04:59:40.605Z,67.90
2017-09-30T05:02:08.182Z,67.80
2017-09-30T05:04:35.723Z,67.90
2017-09-30T05:07:03.257Z,68.10
2017-09-30T05:09:30.811Z,68.20
2017-09-30T05:11:58.321Z,68.10
2017-09-30T05:14:25.827Z,68.30
2017-09-30T05:16:53.369Z,68.40
2017-09-30T05:19:20.876Z,68.60
2017-09-30T05:21:48.408Z,69.40
2017-09-30T05:24:15.900Z,69.00
2017-09-30T05:26:43.428Z,69.00
2017-09-30T05:29:10.928Z,69.10
2017-09-30T05:31:38.448Z,69.20
2017-09-30T05:34:05.981Z,69.40
2017-09-30T05:36:33.504Z,69.30
2017-09-30T05:39:01.764Z,69.30
2017-09-30T05:41:29.305Z,69.20
2017-09-30T05:43:56.800Z,69.50
2017-09-30T05:46:25.068Z,69.50
2017-09-30T05:48:53.371Z,69.60
2017-09-30T05:51:21.636Z,70.30
2017-09-30T05:53:49.915Z,69.70
2017-09-30T05:56:17.399Z,69.70
2017-09-30T05:58:44.908Z,69.70
2017-09-30T06:01:13.168Z,70.10
2017-09-30T06:03:40.662Z,70.10
2017-09-30T06:06:08.247Z,70.10
2017-09-30T06:08:35.739Z,70.30
2017-09-30T06:11:03.250Z,70.40
2017-09-30T06:13:30.744Z,70.70
2017-09-30T06:15:58.266Z,71.20
2017-09-30T06:18:25.779Z,70.70
2017-09-30T06:20:54.181Z,71.10
2017-09-30T06:23:21.691Z,71.00
2017-09-30T06:25:49.196Z,70.70
2017-09-30T06:28:16.721Z,70.20
2017-09-30T06:30:44.218Z,70.30
2017-09-30T06:33:11.728Z,70.20
2017-09-30T06:35:39.244Z,70.20
2017-09-30T06:38:06.771Z,70.20
2017-09-30T06:40:34.297Z,70.20
2017-09-30T06:43:01.826Z,70.10
2017-09-30T06:45:29.321Z,69.90
2017-09-30T06:47:56.821Z,69.30
2017-09-30T06:50:24.336Z,69.50
2017-09-30T06:52:51.828Z,69.10
2017-09-30T06:55:19.356Z,69.50
2017-09-30T06:57:47.636Z,69.60
2017-09-30T07:00:15.924Z,69.50
2017-09-30T07:02:43.424Z,69.50
2017-09-30T07:05:10.925Z,69.50
2017-09-30T07:07:39.204Z,69.70
2017-09-30T07:10:07.483Z,69.60
2017-09-30T07:12:35.756Z,69.80
2017-09-30T07:15:04.016Z,69.90
2017-09-30T07:17:31.521Z,69.90
2017-09-30T07:19:59.018Z,70.20
2017-09-30T07:22:26.542Z,70.10
2017-09-30T07:24:54.065Z,69.90
2017-09-30T07:27:21.596Z,70.10
2017-09-30T07:29:49.091Z,70.20
2017-09-30T07:32:16.575Z,70.40
2017-09-30T07:34:44.092Z,70.40
2017-09-30T07:37:11.580Z,70.10
2017-09-30T07:39:39.090Z,69.60
2017-09-30T07:42:07.367Z,70.00
2017-09-30T07:44:35.649Z,70.40
2017-09-30T07:47:03.915Z,70.20
2017-09-30T07:49:32.218Z,69.40
2017-09-30T07:51:59.721Z,69.30
2017-09-30T07:54:27.216Z,68.50
2017-09-30T07:56:54.732Z,68.10
2017-09-30T07:59:22.246Z,67.90
2017-09-30T08:01:49.778Z,67.50
2017-09-30T08:04:18.032Z,67.00
2017-09-30T08:06:45.563Z,66.90
2017-09-30T08:09:13.059Z,66.70
2017-09-30T08:11:41.331Z,66.20
2017-09-30T08:14:09.615Z,65.60
2017-09-30T08:16:37.104Z,65.60
2017-09-30T08:19:04.616Z,65.30
2017-09-30T08:21:32.898Z,65.10
2017-09-30T08:24:01.184Z,65.10
2017-09-30T08:26:29.459Z,65.00
2017-09-30T08:28:56.992Z,65.00
2017-09-30T08:31:24.485Z,64.80
2017-09-30T08:33:51.985Z,64.80
2017-09-30T08:36:19.496Z,64.80
2017-09-30T08:38:47.010Z,64.70
2017-09-30T08:41:14.515Z,64.90
2017-09-30T08:43:42.011Z,64.80
2017-09-30T08:46:09.526Z,64.90
2017-09-30T08:48:37.043Z,65.20
2017-09-30T08:51:04.570Z,64.90
2017-09-30T08:53:32.070Z,65.70
2017-09-30T08:56:00.340Z,65.50
2017-09-30T08:58:27.843Z,65.50
2017-09-30T09:00:55.346Z,65.60
2017-09-30T09:03:22.864Z,65.50
2017-09-30T09:05:50.436Z,65.40
2017-09-30T09:08:18.053Z,65.60
2017-09-30T09:10:45.567Z,65.90
2017-09-30T09:13:13.061Z,66.10
2017-09-30T09:15:40.652Z,65.90
2017-09-30T09:18:08.156Z,65.80
2017-09-30T09:20:35.670Z,65.70
2017-09-30T09:23:03.173Z,65.90
2017-09-30T09:25:30.698Z,66.10
2017-09-30T09:27:58.407Z,66.30
2017-09-30T09:30:26.013Z,66.30
2017-09-30T09:32:53.517Z,66.30
2017-09-30T09:35:21.785Z,66.20
2017-09-30T09:37:50.060Z,65.60
2017-09-30T09:40:18.316Z,65.50
2017-09-30T09:42:46.593Z,65.40
2017-09-30T09:45:14.108Z,65.30
2017-09-30T09:47:41.729Z,65.30
2017-09-30T09:50:10.017Z,64.80
2017-09-30T09:52:37.518Z,64.80
2017-09-30T09:55:05.030Z,65.30
2017-09-30T09:57:32.561Z,65.20
2017-09-30T10:00:00.848Z,65.10
2017-09-30T10:02:29.136Z,64.90
2017-09-30T10:04:56.637Z,64.90
2017-09-30T10:07:24.161Z,64.20
2017-09-30T10:09:51.660Z,63.50
2017-09-30T10:12:19.178Z,64.10
2017-09-30T10:14:46.686Z,64.00
2017-09-30T10:17:14.995Z,63.40
2017-09-30T10:19:42.512Z,63.40
2017-09-30T10:22:10.011Z,63.50
2017-09-30T10:24:37.520Z,63.50
2017-09-30T10:27:05.012Z,63.30
2017-09-30T10:29:32.538Z,63.70
2017-09-30T10:32:00.039Z,63.70
2017-09-30T10:34:27.571Z,63.80
2017-09-30T10:36:55.840Z,65.60
2017-09-30T10:39:24.116Z,64.90
2017-09-30T10:41:52.400Z,64.80
2017-09-30T10:44:20.676Z,64.90
2017-09-30T10:46:49.710Z,65.50
2017-09-30T10:49:17.208Z,66.10
2017-09-30T10:51:44.739Z,65.80
2017-09-30T10:54:18.154Z,66.70
2017-09-30T10:56:46.340Z,66.00
2017-09-30T10:59:14.606Z,66.90
2017-09-30T11:01:42.100Z,66.90
2017-09-30T11:04:09.609Z,67.50
2017-09-30T11:06:37.100Z,67.30
2017-09-30T11:09:05.442Z,68.00
2017-09-30T11:11:32.959Z,67.90
2017-09-30T11:14:00.459Z,67.20
2017-09-30T11:16:28.001Z,66.10
2017-09-30T11:18:55.502Z,65.90
2017-09-30T11:21:24.963Z,65.60
2017-09-30T11:23:52.538Z,65.50
2017-09-30T11:26:20.320Z,65.90
2017-09-30T11:28:49.321Z,65.50
2017-09-30T11:31:17.447Z,65.30
2017-09-30T11:33:46.181Z,65.80
2017-09-30T11:36:17.782Z,66.00
2017-09-30T11:38:47.517Z,66.30
2017-09-30T11:41:16.023Z,66.50
2017-09-30T11:43:43.903Z,66.30
2017-09-30T11:46:12.530Z,66.40
2017-09-30T11:48:41.300Z,67.20
2017-09-30T11:51:09.960Z,67.20
2017-09-30T11:53:38.841Z,66.90
2017-09-30T11:56:06.412Z,66.80
2017-09-30T11:58:33.918Z,66.90
2017-09-30T12:01:01.441Z,67.40
2017-09-30T12:03:29.719Z,67.40
2017-09-30T12:05:58.261Z,67.30
2017-09-30T12:08:25.768Z,67.30
2017-09-30T12:10:53.307Z,67.40
2017-09-30T12:13:20.801Z,67.50
2017-09-30T12:15:48.334Z,67.20
2017-09-30T12:18:16.628Z,67.70
2017-09-30T12:20:44.122Z,67.70
2017-09-30T12:23:11.665Z,68.10
2017-09-30T12:25:39.168Z,67.70
2017-09-30T12:28:07.449Z,67.00
2017-09-30T12:30:35.073Z,67.00
2017-09-30T12:33:02.624Z,67.50
2017-09-30T12:35:30.121Z,67.70
2017-09-30T12:37:58.384Z,68.20
2017-09-30T12:40:25.936Z,68.20
2017-09-30T12:42:54.209Z,66.40
2017-09-30T12:45:21.741Z,66.40
2017-09-30T12:47:55.650Z,66.50
2017-09-30T12:50:24.785Z,67.00
2017-09-30T12:52:52.509Z,66.80
2017-09-30T12:55:21.277Z,66.80
2017-09-30T12:57:51.255Z,66.70
2017-09-30T13:00:20.296Z,65.40
2017-09-30T13:02:49.208Z,65.10
2017-09-30T13:05:17.808Z,65.60
2017-09-30T13:07:46.225Z,65.90
2017-09-30T13:10:13.789Z,65.60
2017-09-30T13:12:42.385Z,64.70
2017-09-30T13:15:09.890Z,64.60
2017-09-30T13:17:43.835Z,64.40
2017-09-30T13:20:13.671Z,64.10
2017-09-30T13:22:44.048Z,64.10
2017-09-30T13:25:18.162Z,64.60
2017-09-30T13:27:45.929Z,64.90
2017-09-30T13:30:13.594Z,64.70
2017-09-30T13:32:53.142Z,64.50
2017-09-30T13:35:22.982Z,64.50
2017-09-30T13:37:52.205Z,64.10
2017-09-30T13:40:21.951Z,63.60
2017-09-30T13:42:50.621Z,63.70
2017-09-30T13:45:19.100Z,63.20
2017-09-30T13:47:47.655Z,63.00
2017-09-30T13:50:16.540Z,63.20
2017-09-30T13:52:44.525Z,63.10
2017-09-30T13:55:12.474Z,63.50
2017-09-30T13:57:41.207Z,63.80
2017-09-30T14:00:09.542Z,63.60
2017-09-30T14:02:39.113Z,63.70
2017-09-30T14:05:06.777Z,63.70
2017-09-30T14:07:34.285Z,63.90
2017-09-30T14:10:02.557Z,65.80
2017-09-30T14:12:30.101Z,65.80
2017-09-30T14:14:57.607Z,67.40
2017-09-30T14:17:25.117Z,68.30
2017-09-30T14:19:52.697Z,68.50
2017-09-30T14:22:21.003Z,69.40
2017-09-30T14:24:48.503Z,69.40
2017-09-30T14:27:16.897Z,69.80
2017-09-30T14:29:45.171Z,69.90
2017-09-30T14:32:12.714Z,69.80
2017-09-30T14:34:40.209Z,69.30
2017-09-30T14:37:07.756Z,69.30
2017-09-30T14:39:36.023Z,68.60
2017-09-30T14:42:04.312Z,68.50
2017-09-30T14:44:32.626Z,68.80
2017-09-30T14:47:00.127Z,68.70
2017-09-30T14:49:28.388Z,69.00
2017-09-30T14:51:55.918Z,68.90
2017-09-30T14:54:23.408Z,69.10
2017-09-30T14:56:50.935Z,69.30
2017-09-30T14:59:18.464Z,70.10
2017-09-30T15:01:45.965Z,70.40
2017-09-30T15:04:13.496Z,70.50
2017-09-30T15:06:41.037Z,71.10
2017-09-30T15:09:08.575Z,70.20
2017-09-30T15:11:36.848Z,70.10
2017-09-30T15:14:05.112Z,69.00
2017-09-30T15:16:33.401Z,68.40
2017-09-30T15:19:01.704Z,69.00
2017-09-30T15:21:29.269Z,68.90
2017-09-30T15:23:56.798Z,69.10
2017-09-30T15:26:24.331Z,69.40
2017-09-30T15:28:51.848Z,69.70
2017-09-30T15:31:19.345Z,70.40
2017-09-30T15:33:47.665Z,71.60
2017-09-30T15:36:15.209Z,71.50
2017-09-30T15:38:42.713Z,71.80
2017-09-30T15:41:10.219Z,72.00
2017-09-30T15:43:37.764Z,72.30
2017-09-30T15:46:06.029Z,72.80
2017-09-30T15:48:34.301Z,72.60
2017-09-30T15:51:02.622Z,72.70
2017-09-30T15:53:30.129Z,72.60
2017-09-30T15:55:58.408Z,72.50
2017-09-30T15:58:26.722Z,72.00
2017-09-30T16:00:54.253Z,72.00
2017-09-30T16:03:22.519Z,71.70
2017-09-30T16:05:50.836Z,71.80
2017-09-30T16:08:18.346Z,71.80
2017-09-30T16:10:45.847Z,71.60
2017-09-30T16:13:13.427Z,71.60
2017-09-30T16:15:41.003Z,71.40
2017-09-30T16:18:09.289Z,70.40
2017-09-30T16:20:37.648Z,70.30
2017-09-30T16:23:05.149Z,70.30
2017-09-30T16:25:33.403Z,69.50
2017-09-30T16:28:01.707Z,69.60
2017-09-30T16:30:29.203Z,69.60
2017-09-30T16:32:56.707Z,69.30
2017-09-30T16:35:24.250Z,69.50
2017-09-30T16:37:52.520Z,68.40
2017-09-30T16:40:20.802Z,68.30
2017-09-30T16:42:49.125Z,66.80
2017-09-30T16:45:16.628Z,66.70
2017-09-30T16:47:44.145Z,66.20
2017-09-30T16:50:11.732Z,66.50
2017-09-30T16:52:39.241Z,66.10
2017-09-30T16:55:06.802Z,65.60
2017-09-30T16:57:34.884Z,65.60
2017-09-30T17:00:02.401Z,65.50
2017-09-30T17:02:30.706Z,65.20
2017-09-30T17:04:58.213Z,65.10
2017-09-30T17:07:25.714Z,64.30
2017-09-30T17:09:53.236Z,64.70
2017-09-30T17:12:20.765Z,64.40
2017-09-30T17:14:48.294Z,65.30
2017-09-30T17:17:15.782Z,63.90
2017-09-30T17:19:43.283Z,63.70
2017-09-30T17:22:10.820Z,64.40
2017-09-30T17:24:46.534Z,64.20
2017-09-30T17:27:14.086Z,64.20
2017-09-30T17:29:42.606Z,64.00
2017-09-30T17:32:10.118Z,64.10
2017-09-30T17:34:37.640Z,64.20
2017-09-30T17:37:05.940Z,65.10
2017-09-30T17:39:33.479Z,64.50
2017-09-30T17:42:00.998Z,64.20
2017-09-30T17:44:28.540Z,63.80
2017-09-30T17:46:56.061Z,64.30
2017-09-30T17:49:23.584Z,63.90
2017-09-30T17:51:51.873Z,64.10
2017-09-30T17:54:20.136Z,64.30
2017-09-30T17:56:48.428Z,63.70
2017-09-30T17:59:15.975Z,63.70
2017-09-30T18:01:44.246Z,63.90
2017-09-30T18:04:12.543Z,64.20
2017-09-30T18:06:40.046Z,64.20
2017-09-30T18:09:07.608Z,64.50
2017-09-30T18:11:35.170Z,63.60
2017-09-30T18:14:02.676Z,63.00
2017-09-30T18:16:30.206Z,63.80
2017-09-30T18:18:58.486Z,63.90
2017-09-30T18:21:26.043Z,63.80
2017-09-30T18:23:54.319Z,64.30
2017-09-30T18:26:22.606Z,63.40
2017-09-30T18:28:50.148Z,63.40
2017-09-30T18:31:18.407Z,64.00
2017-09-30T18:33:45.925Z,64.00
2017-09-30T18:36:13.512Z,63.80
2017-09-30T18:38:41.052Z,63.70
2017-09-30T18:41:08.549Z,63.70
2017-09-30T18:43:36.821Z,63.70
2017-09-30T18:46:05.122Z,63.70
2017-09-30T18:48:32.647Z,63.60
2017-09-30T18:51:00.256Z,64.00
2017-09-30T18:53:27.862Z,63.50
2017-09-30T18:55:55.400Z,63.90
2017-09-30T18:58:22.909Z,64.30
2017-09-30T19:00:50.441Z,63.60
2017-09-30T19:03:18.742Z,63.80
2017-09-30T19:05:46.249Z,63.70
2017-09-30T19:08:13.791Z,63.90
2017-09-30T19:10:41.320Z,64.20
2017-09-30T19:13:08.828Z,64.40
2017-09-30T19:15:36.401Z,64.80
2017-09-30T19:18:04.700Z,64.90
2017-09-30T19:20:33.012Z,64.40
2017-09-30T19:23:00.514Z,64.40
2017-09-30T19:25:28.776Z,64.50
2017-09-30T19:27:56.326Z,64.50
2017-09-30T19:30:26.314Z,65.10
2017-09-30T19:32:53.832Z,64.30
2017-09-30T19:35:22.183Z,64.10
2017-09-30T19:37:49.687Z,63.90
2017-09-30T19:40:18.368Z,64.30
2017-09-30T19:42:46.211Z,64.70
2017-09-30T19:45:15.917Z,65.00
2017-09-30T19:47:44.215Z,64.60
2017-09-30T19:50:11.721Z,64.60
2017-09-30T19:52:39.278Z,64.80
2017-09-30T19:55:06.770Z,65.20
2017-09-30T19:57:34.349Z,65.10
2017-09-30T20:00:01.853Z,65.00
2017-09-30T20:02:29.376Z,65.40
2017-09-30T20:04:56.912Z,65.40
2017-09-30T20:07:24.437Z,64.80
2017-09-30T20:09:51.985Z,64.80
2017-09-30T20:12:19.495Z,65.60
2017-09-30T20:14:47.036Z,65.10
2017-09-30T20:17:14.565Z,64.70
2017-09-30T20:19:43.436Z,64.70
2017-09-30T20:22:10.944Z,64.70
2017-09-30T20:24:41.435Z,65.00
2017-09-30T20:27:09.122Z,64.80
2017-09-30T20:29:37.394Z,64.10
2017-09-30T20:32:05.717Z,64.30
2017-09-30T20:34:33.231Z,64.20
2017-09-30T20:37:00.804Z,64.30
2017-09-30T20:39:28.301Z,64.60
2017-09-30T20:41:55.815Z,64.70
2017-09-30T20:44:23.373Z,65.00
2017-09-30T20:46:50.891Z,64.90
2017-09-30T20:49:18.410Z,64.70
2017-09-30T20:51:45.972Z,64.90
2017-09-30T20:54:13.493Z,65.00
2017-09-30T20:56:41.000Z,64.60
2017-09-30T20:59:08.559Z,64.80
2017-09-30T21:01:36.132Z,65.10
2017-09-30T21:04:03.688Z,64.60
2017-09-30T21:06:31.221Z,65.00
2017-09-30T21:08:58.751Z,65.30
2017-09-30T21:11:26.290Z,64.90
2017-09-30T21:13:53.950Z,65.10
2017-09-30T21:16:22.265Z,65.30
2017-09-30T21:18:50.565Z,65.30
2017-09-30T21:21:18.078Z,65.10
2017-09-30T21:23:45.629Z,65.20
2017-09-30T21:26:13.134Z,65.10
2017-09-30T21:28:40.711Z,64.70
2017-09-30T21:31:09.442Z,64.90
2017-09-30T21:33:36.984Z,65.80
2017-09-30T21:36:04.571Z,65.00
2017-09-30T21:38:32.301Z,64.90
2017-09-30T21:40:59.833Z,64.90
2017-09-30T21:43:27.572Z,64.80
2017-09-30T21:45:55.144Z,65.00
2017-09-30T21:48:22.679Z,64.50
2017-09-30T21:50:50.221Z,64.90
2017-09-30T21:53:18.639Z,65.10
2017-09-30T21:55:46.166Z,65.20
2017-09-30T21:58:13.718Z,65.00
2017-09-30T22:00:41.249Z,65.50
2017-09-30T22:03:08.758Z,65.00
2017-09-30T22:05:36.444Z,64.80
2017-09-30T22:08:04.717Z,64.50
2017-09-30T22:10:33.001Z,65.30
2017-09-30T22:13:01.302Z,65.00
2017-09-30T22:15:29.226Z,65.00
2017-09-30T22:17:56.835Z,64.80
2017-09-30T22:20:24.363Z,65.90
2017-09-30T22:22:52.678Z,64.90
2017-09-30T22:25:20.185Z,64.90
2017-09-30T22:27:48.513Z,65.00
2017-09-30T22:30:16.022Z,65.00
2017-09-30T22:32:43.611Z,65.00
2017-09-30T22:35:11.124Z,65.10
2017-09-30T22:37:38.616Z,65.10
2017-09-30T22:40:06.229Z,65.20
2017-09-30T22:42:33.758Z,65.10
2017-09-30T22:45:01.328Z,64.90
2017-09-30T22:47:28.853Z,64.50
2017-09-30T22:49:56.386Z,64.50
2017-09-30T22:52:37.795Z,65.00
2017-09-30T22:55:05.296Z,65.00
2017-09-30T22:57:32.827Z,64.50
2017-09-30T23:00:01.017Z,65.10
2017-09-30T23:02:29.254Z,65.00
2017-09-30T23:04:56.755Z,64.90
2017-09-30T23:07:25.190Z,64.40
2017-09-30T23:09:52.766Z,65.10
2017-09-30T23:12:20.283Z,64.60
2017-09-30T23:14:48.629Z,64.60
2017-09-30T23:17:17.064Z,64.50
2017-09-30T23:19:44.625Z,64.80
2017-09-30T23:22:13.063Z,64.60
2017-09-30T23:24:40.628Z,65.00
2017-09-30T23:27:10.085Z,65.10
2017-09-30T23:29:37.614Z,65.00
2017-09-30T23:32:05.124Z,65.10
2017-09-30T23:34:32.906Z,65.40
2017-09-30T23:37:00.437Z,65.00
2017-09-30T23:39:27.937Z,64.80
2017-09-30T23:41:56.058Z,65.10
2017-09-30T23:44:23.598Z,64.50
2017-09-30T23:46:51.910Z,64.80
2017-09-30T23:49:20.340Z,65.20
2017-09-30T23:51:48.791Z,65.00
2017-09-30T23:54:18.105Z,65.20
2017-09-30T23:56:45.608Z,65.30
2017-09-30T23:59:13.590Z,65.20
